Time;durP1;ratioP1;P1;durP2;ratioP2;P2;SDS_P1;SDS_P2;PMS_P1;PMS_P2;Temp;Humidity;BMP_temperature;BMP_pressure;BME280_temperature;BME280_humidity;BME280_pressure;Samples;Min_cycle;Max_cycle;Signal;HPM_P1;HPM_P2
2022/02/23 04:39:34;;;;;;;1999.90;999.90;;;;;;;;;;5091900;23;20243;-71
2022/02/23 04:42:19;;;;;;;1999.90;999.90;;;;;;;;;;4972460;28;20682;-70
2022/02/23 04:45:05;;;;;;;1999.90;999.90;;;;;;;;;;4975309;28;20430;-70
2022/02/23 04:47:50;;;;;;;1999.90;999.90;;;;;;;;;;4965839;28;20269;-70
2022/02/23 04:50:35;;;;;;;1999.90;999.90;;;;;;;;;;4967527;28;20299;-69
2022/02/23 04:53:20;;;;;;;1999.90;999.90;;;;;;;;;;4974445;28;20240;-70
2022/02/23 04:56:07;;;;;;;1999.90;999.90;;;;;;;;;;4974630;28;20788;-69
2022/02/23 04:58:52;;;;;;;1999.90;999.90;;;;;;;;;;4974270;28;20309;-71
2022/02/23 05:01:37;;;;;;;1999.90;999.90;;;;;;;;;;4952957;28;20205;-69
2022/02/23 05:04:22;;;;;;;1999.90;999.90;;;;;;;;;;4955993;28;20209;-71
2022/02/23 05:07:07;;;;;;;1999.90;999.90;;;;;;;;;;4957106;28;20333;-71
2022/02/23 05:09:53;;;;;;;1999.90;999.90;;;;;;;;;;4956403;29;20348;-71
2022/02/23 05:12:39;;;;;;;1999.90;999.90;;;;;;;;;;4956736;29;20208;-70
2022/02/23 05:15:24;;;;;;;1999.90;999.90;;;;;;;;;;4956493;29;20205;-71
2022/02/23 05:18:09;;;;;;;1999.90;999.90;;;;;;;;;;4956335;29;20224;-70
2022/02/23 05:20:54;;;;;;;1999.90;999.90;;;;;;;;;;4956459;29;20272;-71
2022/02/23 05:23:39;;;;;;;1999.90;999.90;;;;;;;;;;4939473;29;20228;-71
2022/02/23 05:26:24;;;;;;;1999.90;999.90;;;;;;;;;;4937194;29;20206;-70
2022/02/23 05:29:10;;;;;;;1999.90;999.90;;;;;;;;;;4937073;29;20724;-70
2022/02/23 05:31:55;;;;;;;1999.90;999.90;;;;;;;;;;4936944;29;20229;-70
2022/02/23 05:34:40;;;;;;;1999.90;999.90;;;;;;;;;;4937249;29;20334;-71
2022/02/23 05:37:25;;;;;;;1999.90;999.90;;;;;;;;;;4936780;29;20293;-70
2022/02/23 05:40:11;;;;;;;1999.90;999.90;;;;;;;;;;4936846;29;20205;-70
2022/02/23 05:42:56;;;;;;;1999.90;999.90;;;;;;;;;;4937094;29;20781;-71
2022/02/23 05:45:42;;;;;;;1999.90;999.90;;;;;;;;;;4937127;29;20209;-70
2022/02/23 05:48:27;;;;;;;1999.90;999.90;;;;;;;;;;4936603;29;20296;-71
2022/02/23 05:51:24;;;;;;;1999.90;999.90;;;;;;;;;;4936722;29;20229;-70
2022/02/23 05:54:10;;;;;;;1999.90;999.90;;;;;;;;;;4937637;29;20703;-70
2022/02/23 05:56:54;;;;;;;1999.90;999.90;;;;;;;;;;4955528;29;20703;-71
2022/02/23 05:59:40;;;;;;;1999.90;999.90;;;;;;;;;;4955457;29;20699;-71
2022/02/23 06:02:26;;;;;;;1999.90;999.90;;;;;;;;;;4955235;28;20584;-71
2022/02/23 06:05:11;;;;;;;1999.90;999.90;;;;;;;;;;4955554;29;20220;-70
2022/02/23 06:07:57;;;;;;;1999.90;999.90;;;;;;;;;;4955440;28;20594;-70
2022/02/23 06:10:42;;;;;;;1999.90;999.90;;;;;;;;;;4955169;29;20893;-71
2022/02/23 06:13:27;;;;;;;1999.90;999.90;;;;;;;;;;4955660;29;20247;-71
2022/02/23 06:16:12;;;;;;;1999.90;999.90;;;;;;;;;;4955706;29;20212;-71
2022/02/23 06:18:58;;;;;;;1999.90;999.90;;;;;;;;;;4954973;28;20233;-70
2022/02/23 06:21:43;;;;;;;1999.90;999.90;;;;;;;;;;4955519;29;20195;-70
2022/02/23 06:24:29;;;;;;;1999.90;999.90;;;;;;;;;;4955112;29;20213;-70
2022/02/23 06:27:16;;;;;;;1999.90;999.90;;;;;;;;;;4955444;28;20216;-70
2022/02/23 06:30:01;;;;;;;1999.90;999.90;;;;;;;;;;4954804;29;20320;-70
2022/02/23 06:32:46;;;;;;;1999.90;999.90;;;;;;;;;;4955160;29;20706;-70
2022/02/23 06:35:33;;;;;;;1999.90;999.90;;;;;;;;;;4955050;29;20224;-70
2022/02/23 06:38:18;;;;;;;1999.90;999.90;;;;;;;;;;4954432;29;20240;-71
2022/02/23 06:41:04;;;;;;;1999.90;999.90;;;;;;;;;;4955012;29;20205;-70
2022/02/23 06:43:49;;;;;;;1999.90;999.90;;;;;;;;;;4954586;29;20208;-71
2022/02/23 06:46:35;;;;;;;1999.90;999.90;;;;;;;;;;4955055;29;20212;-69
2022/02/23 06:49:20;;;;;;;1999.90;999.90;;;;;;;;;;4954457;28;20597;-71
2022/02/23 06:52:08;;;;;;;1999.90;999.90;;;;;;;;;;4954675;29;20252;-71
2022/02/23 06:54:53;;;;;;;1999.90;999.90;;;;;;;;;;4954159;29;20212;-69
2022/02/23 06:57:39;;;;;;;1999.90;999.90;;;;;;;;;;4954479;29;20730;-69
2022/02/23 07:00:25;;;;;;;1999.90;999.90;;;;;;;;;;4935754;29;20696;-71
2022/02/23 07:03:10;;;;;;;1999.90;999.90;;;;;;;;;;4940632;29;20209;-70
2022/02/23 07:05:55;;;;;;;1999.90;999.90;;;;;;;;;;4954459;29;20209;-70
2022/02/23 07:08:44;;;;;;;1999.90;999.90;;;;;;;;;;4954065;29;20237;-70
2022/02/23 07:11:30;;;;;;;1999.90;999.90;;;;;;;;;;4954174;29;20216;-70
2022/02/23 07:14:15;;;;;;;1999.90;999.90;;;;;;;;;;4953852;28;20296;-70
2022/02/23 07:17:00;;;;;;;1999.90;999.90;;;;;;;;;;4954624;29;20284;-70
2022/02/23 07:19:45;;;;;;;1999.90;999.90;;;;;;;;;;4954183;29;20219;-71
2022/02/23 07:22:30;;;;;;;1999.90;999.90;;;;;;;;;;4954186;29;20224;-70
2022/02/23 07:25:16;;;;;;;1999.90;999.90;;;;;;;;;;4953186;29;20466;-70
2022/02/23 07:28:02;;;;;;;1999.90;999.90;;;;;;;;;;4953530;29;20233;-70
2022/02/23 07:30:48;;;;;;;1999.90;999.90;;;;;;;;;;4953806;29;20228;-71
2022/02/23 07:33:34;;;;;;;1999.90;999.90;;;;;;;;;;4954103;29;20216;-71
2022/02/23 07:36:19;;;;;;;1999.90;999.90;;;;;;;;;;4952987;29;20305;-68
2022/02/23 07:39:07;;;;;;;1999.90;999.90;;;;;;;;;;4934648;29;20373;-71
2022/02/23 07:41:53;;;;;;;1999.90;999.90;;;;;;;;;;4944458;29;20674;-67
2022/02/23 07:44:38;;;;;;;1999.90;999.90;;;;;;;;;;4954074;29;20230;-69
2022/02/23 07:47:23;;;;;;;1999.90;999.90;;;;;;;;;;4953656;28;20805;-71
2022/02/23 07:50:12;;;;;;;1999.90;999.90;;;;;;;;;;4953536;29;20214;-71
2022/02/23 07:52:57;;;;;;;1999.90;999.90;;;;;;;;;;4945567;29;20228;-70
2022/02/23 07:55:42;;;;;;;1999.90;999.90;;;;;;;;;;4943332;29;20467;-71
2022/02/23 07:58:28;;;;;;;1999.90;999.90;;;;;;;;;;4951476;29;20256;-70
2022/02/23 08:01:27;;;;;;;1999.90;999.90;;;;;;;;;;4953912;29;20702;-70
2022/02/23 08:04:12;;;;;;;1999.90;999.90;;;;;;;;;;4953833;29;20208;-68
2022/02/23 08:06:56;;;;;;;1999.90;999.90;;;;;;;;;;4953546;29;20256;-70
2022/02/23 08:09:41;;;;;;;1999.90;999.90;;;;;;;;;;4953623;29;20215;-71
2022/02/23 08:12:27;;;;;;;1999.90;999.90;;;;;;;;;;4953497;29;20240;-69
2022/02/23 08:21:20;;;;;;;1999.90;999.90;;;;;;;;;;4934627;29;20240;-71
2022/02/23 08:24:06;;;;;;;1999.90;999.90;;;;;;;;;;4946353;28;20751;-70
2022/02/23 08:26:51;;;;;;;1999.90;999.90;;;;;;;;;;4956789;29;20218;-70
2022/02/23 08:29:36;;;;;;;1999.90;999.90;;;;;;;;;;4938132;29;20286;-70
2022/02/23 08:32:23;;;;;;;1999.90;999.90;;;;;;;;;;4947940;29;20742;-70
2022/02/23 08:35:09;;;;;;;1999.90;999.90;;;;;;;;;;4957073;29;20206;-70
2022/02/23 08:37:54;;;;;;;1999.90;999.90;;;;;;;;;;4953040;29;20346;-70
2022/02/23 08:40:39;;;;;;;1999.90;999.90;;;;;;;;;;4957109;29;20206;-70
2022/02/23 08:43:24;;;;;;;1999.90;999.90;;;;;;;;;;4953357;29;20628;-71
2022/02/23 08:46:09;;;;;;;1999.90;999.90;;;;;;;;;;4956571;29;20597;-69
2022/02/23 08:48:55;;;;;;;1999.90;999.90;;;;;;;;;;4954823;28;20234;-70
2022/02/23 08:51:43;;;;;;;1999.90;999.90;;;;;;;;;;4956374;29;20226;-71
2022/02/23 08:54:28;;;;;;;1999.90;999.90;;;;;;;;;;4954898;29;20513;-72
2022/02/23 08:57:13;;;;;;;1999.90;999.90;;;;;;;;;;4956878;29;20209;-72
2022/02/23 08:59:58;;;;;;;1999.90;999.90;;;;;;;;;;4955599;29;20258;-71
2022/02/23 09:02:43;;;;;;;1999.90;999.90;;;;;;;;;;4956764;29;20336;-71
2022/02/23 09:05:29;;;;;;;1999.90;999.90;;;;;;;;;;4956503;29;20211;-72
2022/02/23 09:08:15;;;;;;;1999.90;999.90;;;;;;;;;;4953556;28;20239;-70
2022/02/23 09:11:00;;;;;;;1999.90;999.90;;;;;;;;;;4956269;29;20277;-70
2022/02/23 09:13:45;;;;;;;1999.90;999.90;;;;;;;;;;4956355;29;20641;-71
2022/02/23 09:16:30;;;;;;;1999.90;999.90;;;;;;;;;;4954453;29;20227;-71
2022/02/23 09:19:14;;;;;;;1999.90;999.90;;;;;;;;;;4952903;29;20238;-71
2022/02/23 09:22:01;;;;;;;1999.90;999.90;;;;;;;;;;4950004;29;20282;-71
2022/02/23 09:24:46;;;;;;;1999.90;999.90;;;;;;;;;;4955167;29;20469;-71
2022/02/23 09:27:30;;;;;;;1999.90;999.90;;;;;;;;;;4956327;28;20235;-70
2022/02/23 09:30:15;;;;;;;1999.90;999.90;;;;;;;;;;4956584;29;20268;-72
2022/02/23 09:33:00;;;;;;;1999.90;999.90;;;;;;;;;;4956097;29;20605;-71
2022/02/23 09:35:48;;;;;;;1999.90;999.90;;;;;;;;;;4936742;29;20686;-71
2022/02/23 09:38:34;;;;;;;1999.90;999.90;;;;;;;;;;4936583;29;20700;-71
2022/02/23 09:41:21;;;;;;;1999.90;999.90;;;;;;;;;;4938918;29;20207;-71
2022/02/23 09:44:06;;;;;;;1999.90;999.90;;;;;;;;;;4955430;29;20262;-71
2022/02/23 09:46:51;;;;;;;1999.90;999.90;;;;;;;;;;4956302;29;20629;-70
2022/02/23 09:49:37;;;;;;;1999.90;999.90;;;;;;;;;;4955337;29;20212;-70
2022/02/23 09:52:24;;;;;;;1999.90;999.90;;;;;;;;;;4955645;29;20235;-71
2022/02/23 09:55:10;;;;;;;1999.90;999.90;;;;;;;;;;4955913;29;20211;-70
2022/02/23 09:57:56;;;;;;;1999.90;999.90;;;;;;;;;;4955640;29;20235;-71
2022/02/23 10:00:41;;;;;;;1999.90;999.90;;;;;;;;;;4955177;29;20222;-71
2022/02/23 10:03:27;;;;;;;1999.90;999.90;;;;;;;;;;4952534;29;20219;-70
2022/02/23 10:06:18;;;;;;;1999.90;999.90;;;;;;;;;;4951973;28;20207;-71
2022/02/23 10:09:05;;;;;;;1999.90;999.90;;;;;;;;;;4955125;28;20291;-71
2022/02/23 10:11:52;;;;;;;1999.90;999.90;;;;;;;;;;4955352;29;20223;-71
2022/02/23 10:14:37;;;;;;;1999.90;999.90;;;;;;;;;;4955262;29;20348;-71
2022/02/23 10:17:36;;;;;;;1999.90;999.90;;;;;;;;;;4954105;28;20215;-70
2022/02/23 10:20:21;;;;;;;1999.90;999.90;;;;;;;;;;4936186;29;20322;-72
2022/02/23 10:23:15;;;;;;;1999.90;999.90;;;;;;;;;;4950999;28;20235;-71
2022/02/23 10:26:02;;;;;;;1999.90;999.90;;;;;;;;;;4950083;29;20215;-72
2022/02/23 10:28:52;;;;;;;1999.90;999.90;;;;;;;;;;4954624;28;20276;-71
2022/02/23 10:31:49;;;;;;;1999.90;999.90;;;;;;;;;;4935840;29;20220;-72
2022/02/23 10:34:37;;;;;;;1999.90;999.90;;;;;;;;;;4948005;29;20212;-71
2022/02/23 10:37:23;;;;;;;1999.90;999.90;;;;;;;;;;4954091;29;20216;-71
2022/02/23 10:40:12;;;;;;;1999.90;999.90;;;;;;;;;;4945209;29;20220;-70
2022/02/23 10:42:57;;;;;;;1999.90;999.90;;;;;;;;;;4953381;29;20734;-69
2022/02/23 10:45:45;;;;;;;1999.90;999.90;;;;;;;;;;4954147;29;20219;-72
2022/02/23 10:48:31;;;;;;;1999.90;999.90;;;;;;;;;;4952916;28;20380;-71
2022/02/23 10:51:17;;;;;;;1999.90;999.90;;;;;;;;;;4942297;29;20269;-72
2022/02/23 10:54:03;;;;;;;1999.90;999.90;;;;;;;;;;4951713;29;20405;-71
2022/02/23 10:56:48;;;;;;;1999.90;999.90;;;;;;;;;;4950871;29;20291;-71
2022/02/23 10:59:32;;;;;;;1999.90;999.90;;;;;;;;;;4952720;29;20216;-74
2022/02/23 11:02:20;;;;;;;1999.90;999.90;;;;;;;;;;4951888;29;20268;-71
2022/02/23 11:05:06;;;;;;;1999.90;999.90;;;;;;;;;;4953281;29;20218;-71
2022/02/23 11:07:51;;;;;;;1999.90;999.90;;;;;;;;;;4951892;28;20602;-71
2022/02/23 11:10:36;;;;;;;1999.90;999.90;;;;;;;;;;4953846;29;20491;-71
2022/02/23 11:13:22;;;;;;;1999.90;999.90;;;;;;;;;;4953677;29;20267;-71
2022/02/23 11:16:09;;;;;;;1999.90;999.90;;;;;;;;;;4953542;29;20205;-71
2022/02/23 11:18:56;;;;;;;1999.90;999.90;;;;;;;;;;4953064;28;20228;-71
2022/02/23 11:21:42;;;;;;;1999.90;999.90;;;;;;;;;;4953906;29;20221;-71
2022/02/23 11:24:28;;;;;;;1999.90;999.90;;;;;;;;;;4952033;28;20208;-70
2022/02/23 11:27:17;;;;;;;1999.90;999.90;;;;;;;;;;4954487;28;20253;-69
2022/02/23 11:30:05;;;;;;;1999.90;999.90;;;;;;;;;;4950915;28;20237;-71
2022/02/23 11:32:51;;;;;;;1999.90;999.90;;;;;;;;;;4954093;29;20312;-71
2022/02/23 11:35:41;;;;;;;1999.90;999.90;;;;;;;;;;4952636;29;20259;-71
2022/02/23 11:38:27;;;;;;;1999.90;999.90;;;;;;;;;;4938536;29;20376;-71
2022/02/23 11:41:21;;;;;;;1999.90;999.90;;;;;;;;;;4935139;29;20310;-70
2022/02/23 11:44:11;;;;;;;1999.90;999.90;;;;;;;;;;4951403;29;20205;-71
2022/02/23 11:46:57;;;;;;;1999.90;999.90;;;;;;;;;;4934977;29;20206;-71
2022/02/23 11:49:49;;;;;;;1999.90;999.90;;;;;;;;;;4953132;29;20219;-71
2022/02/23 11:52:43;;;;;;;1999.90;999.90;;;;;;;;;;4953890;29;20236;-71
2022/02/23 11:55:29;;;;;;;1999.90;999.90;;;;;;;;;;4953121;29;20211;-71
2022/02/23 11:58:29;;;;;;;1999.90;999.90;;;;;;;;;;4953349;29;20233;-71
2022/02/23 12:01:16;;;;;;;1999.90;999.90;;;;;;;;;;4953352;29;20220;-72
2022/02/23 12:04:13;;;;;;;1999.90;999.90;;;;;;;;;;4953830;29;20337;-72
2022/02/23 12:07:08;;;;;;;1999.90;999.90;;;;;;;;;;4952004;29;20208;-71
2022/02/23 12:10:17;;;;;;;1999.90;999.90;;;;;;;;;;4951525;29;20212;-70
2022/02/23 12:13:04;;;;;;;1999.90;999.90;;;;;;;;;;4951494;29;20307;-71
2022/02/23 12:15:49;;;;;;;1999.90;999.90;;;;;;;;;;4951819;29;20213;-71
2022/02/23 12:18:45;;;;;;;1999.90;999.90;;;;;;;;;;4933538;29;20270;-70
2022/02/23 12:21:36;;;;;;;1999.90;999.90;;;;;;;;;;4951724;29;20292;-70
2022/02/23 12:24:21;;;;;;;1999.90;999.90;;;;;;;;;;4952762;29;20432;-71
2022/02/23 12:27:06;;;;;;;1999.90;999.90;;;;;;;;;;4952331;29;20304;-71
2022/02/23 12:29:55;;;;;;;1999.90;999.90;;;;;;;;;;4950143;29;20208;-71
2022/02/23 12:32:40;;;;;;;1999.90;999.90;;;;;;;;;;4945564;29;20248;-72
2022/02/23 12:35:25;;;;;;;1999.90;999.90;;;;;;;;;;4951465;29;20680;-70
2022/02/23 12:38:10;;;;;;;1999.90;999.90;;;;;;;;;;4953232;28;20730;-68
2022/02/23 12:40:56;;;;;;;1999.90;999.90;;;;;;;;;;4952976;29;20217;-70
2022/02/23 12:43:41;;;;;;;1999.90;999.90;;;;;;;;;;4953119;29;20792;-69
2022/02/23 12:46:27;;;;;;;1999.90;999.90;;;;;;;;;;4953365;29;20264;-70
2022/02/23 12:49:14;;;;;;;1999.90;999.90;;;;;;;;;;4953160;28;20228;-70
2022/02/23 12:52:01;;;;;;;1999.90;999.90;;;;;;;;;;4953115;29;20224;-69
2022/02/23 12:54:45;;;;;;;1999.90;999.90;;;;;;;;;;4953114;29;20212;-69
2022/02/23 12:57:30;;;;;;;1999.90;999.90;;;;;;;;;;4950030;28;20244;-70
2022/02/23 13:00:21;;;;;;;1999.90;999.90;;;;;;;;;;4953525;29;20283;-70
2022/02/23 13:03:08;;;;;;;1999.90;999.90;;;;;;;;;;4953166;29;20284;-70
2022/02/23 13:05:55;;;;;;;1999.90;999.90;;;;;;;;;;4953426;29;20217;-70
2022/02/23 13:08:41;;;;;;;1999.90;999.90;;;;;;;;;;4953264;28;20324;-70
2022/02/23 13:11:27;;;;;;;1999.90;999.90;;;;;;;;;;4954232;28;20567;-70
2022/02/23 13:14:13;;;;;;;1999.90;999.90;;;;;;;;;;4955856;29;20211;-70
2022/02/23 13:16:58;;;;;;;1999.90;999.90;;;;;;;;;;4946681;29;20213;-70
2022/02/23 13:19:45;;;;;;;1999.90;999.90;;;;;;;;;;4956209;29;20683;-70
2022/02/23 13:22:31;;;;;;;1999.90;999.90;;;;;;;;;;4937386;29;20591;-70
2022/02/23 13:25:16;;;;;;;1999.90;999.90;;;;;;;;;;4944134;29;20421;-72
2022/02/23 13:28:01;;;;;;;1999.90;999.90;;;;;;;;;;4956159;28;20303;-71
2022/02/23 13:30:46;;;;;;;1999.90;999.90;;;;;;;;;;4956679;29;20213;-71
2022/02/23 13:33:31;;;;;;;1999.90;999.90;;;;;;;;;;4956086;29;20280;-71
2022/02/23 13:36:17;;;;;;;1999.90;999.90;;;;;;;;;;4956336;29;20260;-71
2022/02/23 13:39:14;;;;;;;1999.90;999.90;;;;;;;;;;4955784;29;20626;-69
2022/02/23 13:42:01;;;;;;;1999.90;999.90;;;;;;;;;;4956210;29;20775;-71
2022/02/23 13:44:46;;;;;;;1999.90;999.90;;;;;;;;;;4956284;29;20287;-70
2022/02/23 13:47:32;;;;;;;1999.90;999.90;;;;;;;;;;4956059;29;20434;-71
2022/02/23 13:50:21;;;;;;;1999.90;999.90;;;;;;;;;;4956122;29;20208;-72
2022/02/23 13:53:09;;;;;;;1999.90;999.90;;;;;;;;;;4955665;29;20272;-70
2022/02/23 13:55:56;;;;;;;1999.90;999.90;;;;;;;;;;4955056;29;20399;-72
2022/02/23 13:58:41;;;;;;;1999.90;999.90;;;;;;;;;;4955343;29;20249;-70
2022/02/23 14:01:26;;;;;;;1999.90;999.90;;;;;;;;;;4955976;29;20212;-71
2022/02/23 14:04:13;;;;;;;1999.90;999.90;;;;;;;;;;4955735;29;20248;-70
2022/02/23 14:06:58;;;;;;;1999.90;999.90;;;;;;;;;;4955872;29;20216;-72
2022/02/23 14:09:44;;;;;;;1999.90;999.90;;;;;;;;;;4952399;29;20209;-71
2022/02/23 14:12:30;;;;;;;1999.90;999.90;;;;;;;;;;4953751;29;20224;-71
2022/02/23 14:15:19;;;;;;;1999.90;999.90;;;;;;;;;;4955590;29;20213;-70
2022/02/23 14:18:17;;;;;;;1999.90;999.90;;;;;;;;;;4955051;28;20311;-70
2022/02/23 14:21:09;;;;;;;1999.90;999.90;;;;;;;;;;4954040;29;20212;-70
2022/02/23 14:23:55;;;;;;;1999.90;999.90;;;;;;;;;;4952981;29;20739;-71
2022/02/23 14:26:52;;;;;;;1999.90;999.90;;;;;;;;;;4953410;29;20632;-70
2022/02/23 14:29:37;;;;;;;1999.90;999.90;;;;;;;;;;4938209;29;20560;-71
2022/02/23 14:32:25;;;;;;;1999.90;999.90;;;;;;;;;;4944024;29;20204;-71
2022/02/23 14:35:11;;;;;;;1999.90;999.90;;;;;;;;;;4952754;29;20586;-70
2022/02/23 14:37:57;;;;;;;1999.90;999.90;;;;;;;;;;4946646;28;20250;-71
2022/02/23 14:40:42;;;;;;;1999.90;999.90;;;;;;;;;;4943743;29;20220;-70
2022/02/23 14:43:28;;;;;;;1999.90;999.90;;;;;;;;;;4943044;29;20241;-70
2022/02/23 14:46:14;;;;;;;1999.90;999.90;;;;;;;;;;4942624;29;20205;-71
2022/02/23 14:48:59;;;;;;;1999.90;999.90;;;;;;;;;;4941762;29;20625;-71
2022/02/23 14:51:43;;;;;;;1999.90;999.90;;;;;;;;;;4944739;29;20209;-71
2022/02/23 14:54:28;;;;;;;1999.90;999.90;;;;;;;;;;4942670;29;20260;-70
2022/02/23 14:57:14;;;;;;;1999.90;999.90;;;;;;;;;;4942481;28;20212;-73
2022/02/23 15:00:00;;;;;;;1999.90;999.90;;;;;;;;;;4944152;29;20827;-70
2022/02/23 15:02:46;;;;;;;1999.90;999.90;;;;;;;;;;4953305;29;20716;-71
2022/02/23 15:05:31;;;;;;;1999.90;999.90;;;;;;;;;;4953949;29;20208;-71
2022/02/23 15:08:16;;;;;;;1999.90;999.90;;;;;;;;;;4952462;28;20320;-72
2022/02/23 15:11:01;;;;;;;1999.90;999.90;;;;;;;;;;4949592;29;20577;-71
2022/02/23 15:13:46;;;;;;;1999.90;999.90;;;;;;;;;;4948995;29;20240;-73
2022/02/23 15:16:32;;;;;;;1999.90;999.90;;;;;;;;;;4944219;29;20210;-70
2022/02/23 15:19:17;;;;;;;1999.90;999.90;;;;;;;;;;4947045;29;20299;-71
2022/02/23 15:22:02;;;;;;;1999.90;999.90;;;;;;;;;;4949575;29;20272;-70
2022/02/23 15:24:47;;;;;;;1999.90;999.90;;;;;;;;;;4948829;29;20333;-72
2022/02/23 15:27:32;;;;;;;1999.90;999.90;;;;;;;;;;4953701;28;20710;-70
2022/02/23 15:30:17;;;;;;;1999.90;999.90;;;;;;;;;;4949074;29;20209;-71
2022/02/23 15:33:03;;;;;;;1999.90;999.90;;;;;;;;;;4945329;28;20217;-72
2022/02/23 15:35:48;;;;;;;1999.90;999.90;;;;;;;;;;4953838;29;20212;-72
2022/02/23 15:38:33;;;;;;;1999.90;999.90;;;;;;;;;;4953486;28;20235;-72
2022/02/23 15:41:18;;;;;;;1999.90;999.90;;;;;;;;;;4953980;29;20294;-72
2022/02/23 15:44:03;;;;;;;1999.90;999.90;;;;;;;;;;4953792;29;20201;-71
2022/02/23 15:46:48;;;;;;;1999.90;999.90;;;;;;;;;;4953901;29;20211;-70
2022/02/23 15:49:34;;;;;;;1999.90;999.90;;;;;;;;;;4953587;29;20216;-72
2022/02/23 15:52:20;;;;;;;1999.90;999.90;;;;;;;;;;4953755;29;20224;-71
2022/02/23 15:55:06;;;;;;;1999.90;999.90;;;;;;;;;;4953731;29;20217;-72
2022/02/23 15:57:51;;;;;;;1999.90;999.90;;;;;;;;;;4953454;28;20562;-72
2022/02/23 16:00:36;;;;;;;1999.90;999.90;;;;;;;;;;4953684;29;20260;-71
2022/02/23 16:03:21;;;;;;;1999.90;999.90;;;;;;;;;;4953727;29;20571;-72
2022/02/23 16:06:07;;;;;;;1999.90;999.90;;;;;;;;;;4953670;29;20245;-72
2022/02/23 16:08:52;;;;;;;1999.90;999.90;;;;;;;;;;4953208;28;20230;-72
2022/02/23 16:11:37;;;;;;;1999.90;999.90;;;;;;;;;;4953670;29;20329;-72
2022/02/23 16:14:23;;;;;;;1999.90;999.90;;;;;;;;;;4953318;29;20228;-72
2022/02/23 16:17:08;;;;;;;1999.90;999.90;;;;;;;;;;4954120;28;20272;-72
2022/02/23 16:19:53;;;;;;;1999.90;999.90;;;;;;;;;;4954492;29;20208;-71
2022/02/23 16:22:39;;;;;;;1999.90;999.90;;;;;;;;;;4953609;29;20208;-71
2022/02/23 16:25:24;;;;;;;1999.90;999.90;;;;;;;;;;4953597;29;20268;-71
2022/02/23 16:28:10;;;;;;;1999.90;999.90;;;;;;;;;;4952105;28;20509;-71
2022/02/23 16:30:55;;;;;;;1999.90;999.90;;;;;;;;;;4953577;29;20302;-74
2022/02/23 16:33:40;;;;;;;1999.90;999.90;;;;;;;;;;4953090;29;20706;-70
2022/02/23 16:36:25;;;;;;;1999.90;999.90;;;;;;;;;;4953381;29;20235;-71
2022/02/23 16:39:12;;;;;;;1999.90;999.90;;;;;;;;;;4953069;28;20236;-69
2022/02/23 16:41:56;;;;;;;1999.90;999.90;;;;;;;;;;4953330;29;20300;-72
2022/02/23 16:44:41;;;;;;;1999.90;999.90;;;;;;;;;;4953566;28;20249;-71
2022/02/23 16:47:26;;;;;;;1999.90;999.90;;;;;;;;;;4956399;28;20208;-71
2022/02/23 16:50:13;;;;;;;1999.90;999.90;;;;;;;;;;4957391;29;20541;-71
2022/02/23 16:52:58;;;;;;;1999.90;999.90;;;;;;;;;;4956857;29;20193;-71
2022/02/23 16:55:44;;;;;;;1999.90;999.90;;;;;;;;;;4955938;29;20957;-70
2022/02/23 16:58:29;;;;;;;1999.90;999.90;;;;;;;;;;4956468;28;20252;-71
2022/02/23 17:01:15;;;;;;;1999.90;999.90;;;;;;;;;;4956736;29;20212;-71
2022/02/23 17:04:00;;;;;;;1999.90;999.90;;;;;;;;;;4956750;29;20209;-71
2022/02/23 17:06:45;;;;;;;1999.90;999.90;;;;;;;;;;4956435;29;20208;-71
2022/02/23 17:09:30;;;;;;;1999.90;999.90;;;;;;;;;;4956197;28;20228;-71
2022/02/23 17:12:16;;;;;;;1999.90;999.90;;;;;;;;;;4956603;29;20707;-70
2022/02/23 17:15:01;;;;;;;1999.90;999.90;;;;;;;;;;4956236;29;20263;-71
2022/02/23 17:17:47;;;;;;;1999.90;999.90;;;;;;;;;;4956209;28;20228;-71
2022/02/23 17:20:32;;;;;;;1999.90;999.90;;;;;;;;;;4956398;29;20213;-71
2022/02/23 17:23:16;;;;;;;1999.90;999.90;;;;;;;;;;4956343;29;20208;-72
2022/02/23 17:26:03;;;;;;;1999.90;999.90;;;;;;;;;;4956943;29;20344;-70
2022/02/23 17:28:49;;;;;;;1999.90;999.90;;;;;;;;;;4956759;28;20280;-70
2022/02/23 17:31:34;;;;;;;1999.90;999.90;;;;;;;;;;4956272;29;20232;-71
2022/02/23 17:34:22;;;;;;;1999.90;999.90;;;;;;;;;;4955968;29;20731;-72
2022/02/23 17:37:07;;;;;;;1999.90;999.90;;;;;;;;;;4955888;29;20675;-71
2022/02/23 17:39:54;;;;;;;1999.90;999.90;;;;;;;;;;4955602;29;20208;-70
2022/02/23 17:42:39;;;;;;;1999.90;999.90;;;;;;;;;;4956037;29;20321;-71
2022/02/23 17:45:27;;;;;;;1999.90;999.90;;;;;;;;;;4956011;29;20208;-72
2022/02/23 17:48:12;;;;;;;1999.90;999.90;;;;;;;;;;4955359;28;20315;-71
2022/02/23 17:50:56;;;;;;;1999.90;999.90;;;;;;;;;;4955877;29;20588;-71
2022/02/23 17:53:41;;;;;;;1999.90;999.90;;;;;;;;;;4955774;29;20236;-71
2022/02/23 17:56:26;;;;;;;1999.90;999.90;;;;;;;;;;4955461;28;20295;-70
2022/02/23 17:59:11;;;;;;;1999.90;999.90;;;;;;;;;;4954207;28;20416;-74
2022/02/23 18:01:58;;;;;;;1999.90;999.90;;;;;;;;;;4955509;29;20278;-73
2022/02/23 18:04:43;;;;;;;1999.90;999.90;;;;;;;;;;4955625;29;20223;-74
2022/02/23 18:07:30;;;;;;;1999.90;999.90;;;;;;;;;;4955478;28;20232;-73
2022/02/23 18:10:15;;;;;;;1999.90;999.90;;;;;;;;;;4955594;29;20212;-75
2022/02/23 18:13:00;;;;;;;1999.90;999.90;;;;;;;;;;4955526;29;20292;-72
2022/02/23 18:15:45;;;;;;;1999.90;999.90;;;;;;;;;;4955479;29;20332;-73
2022/02/23 18:18:32;;;;;;;1999.90;999.90;;;;;;;;;;4954804;28;20727;-73
2022/02/23 18:21:17;;;;;;;1999.90;999.90;;;;;;;;;;4955318;29;20209;-71
2022/02/23 18:24:02;;;;;;;1999.90;999.90;;;;;;;;;;4955125;29;20255;-73
2022/02/23 18:26:47;;;;;;;1999.90;999.90;;;;;;;;;;4954865;29;20509;-73
2022/02/23 18:29:32;;;;;;;1999.90;999.90;;;;;;;;;;4954901;28;20227;-73
2022/02/23 18:32:17;;;;;;;1999.90;999.90;;;;;;;;;;4955426;29;20584;-73
2022/02/23 18:35:04;;;;;;;1999.90;999.90;;;;;;;;;;4955036;29;20248;-73
2022/02/23 18:37:48;;;;;;;1999.90;999.90;;;;;;;;;;4954879;28;20279;-71
2022/02/23 18:40:33;;;;;;;1999.90;999.90;;;;;;;;;;4955252;29;20205;-74
2022/02/23 18:43:18;;;;;;;1999.90;999.90;;;;;;;;;;4955156;29;20257;-73
2022/02/23 18:46:03;;;;;;;1999.90;999.90;;;;;;;;;;4955409;29;20266;-73
2022/02/23 18:48:48;;;;;;;1999.90;999.90;;;;;;;;;;4954788;28;20244;-73
2022/02/23 18:51:34;;;;;;;1999.90;999.90;;;;;;;;;;4954990;29;20579;-73
2022/02/23 18:54:19;;;;;;;1999.90;999.90;;;;;;;;;;4954871;29;20232;-71
2022/02/23 18:57:05;;;;;;;1999.90;999.90;;;;;;;;;;4954795;29;20691;-72
2022/02/23 18:59:50;;;;;;;1999.90;999.90;;;;;;;;;;4954598;29;20208;-73
2022/02/23 19:02:35;;;;;;;1999.90;999.90;;;;;;;;;;4954776;29;20253;-73
2022/02/23 19:05:20;;;;;;;1999.90;999.90;;;;;;;;;;4954556;29;20204;-73
2022/02/23 19:08:08;;;;;;;1999.90;999.90;;;;;;;;;;4953608;28;20315;-73
2022/02/23 19:10:53;;;;;;;1999.90;999.90;;;;;;;;;;4954704;29;20590;-72
2022/02/23 19:13:38;;;;;;;1999.90;999.90;;;;;;;;;;4954587;29;20208;-72
2022/02/23 19:16:23;;;;;;;1999.90;999.90;;;;;;;;;;4954655;29;20734;-73
2022/02/23 19:19:08;;;;;;;1999.90;999.90;;;;;;;;;;4953957;28;20231;-73
2022/02/23 19:21:53;;;;;;;1999.90;999.90;;;;;;;;;;4954555;29;20696;-73
2022/02/23 19:24:39;;;;;;;1999.90;999.90;;;;;;;;;;4954534;29;20204;-73
2022/02/23 19:27:24;;;;;;;1999.90;999.90;;;;;;;;;;4954384;28;20256;-72
2022/02/23 19:30:10;;;;;;;1999.90;999.90;;;;;;;;;;4953434;29;20408;-71
2022/02/23 19:32:55;;;;;;;1999.90;999.90;;;;;;;;;;4954399;29;20212;-73
2022/02/23 19:35:40;;;;;;;1999.90;999.90;;;;;;;;;;4954104;29;20231;-72
2022/02/23 19:38:25;;;;;;;1999.90;999.90;;;;;;;;;;4953847;28;20240;-73
2022/02/23 19:41:12;;;;;;;1999.90;999.90;;;;;;;;;;4954019;29;20207;-73
2022/02/23 19:43:57;;;;;;;1999.90;999.90;;;;;;;;;;4954232;29;20209;-73
2022/02/23 19:46:42;;;;;;;1999.90;999.90;;;;;;;;;;4954229;29;20278;-74
2022/02/23 19:49:27;;;;;;;1999.90;999.90;;;;;;;;;;4953787;28;20269;-73
2022/02/23 19:52:12;;;;;;;1999.90;999.90;;;;;;;;;;4953836;29;20208;-73
2022/02/23 19:54:57;;;;;;;1999.90;999.90;;;;;;;;;;4953923;29;20223;-73
2022/02/23 19:57:44;;;;;;;1999.90;999.90;;;;;;;;;;4954233;28;20268;-72
2022/02/23 20:00:29;;;;;;;1999.90;999.90;;;;;;;;;;4952588;29;20415;-72
2022/02/23 20:03:13;;;;;;;1999.90;999.90;;;;;;;;;;4953707;29;20345;-73
2022/02/23 20:05:58;;;;;;;1999.90;999.90;;;;;;;;;;4954008;29;20214;-72
2022/02/23 20:08:46;;;;;;;1999.90;999.90;;;;;;;;;;4953254;28;20228;-73
2022/02/23 20:11:31;;;;;;;1999.90;999.90;;;;;;;;;;4953899;29;20205;-72